createdAt,value
2022-08-27T00:00:16.649Z,95453.03
2022-08-27T00:02:43.862Z,95457.25
2022-08-27T00:05:12.296Z,95451.03
2022-08-27T00:07:39.850Z,95456.88
2022-08-27T00:10:08.503Z,95454.19
2022-08-27T00:12:36.434Z,95454.66
2022-08-27T00:15:05.786Z,95453.88
2022-08-27T00:17:33.492Z,95455.41
2022-08-27T00:20:00.071Z,95448.72
2022-08-27T00:22:26.646Z,95452.72
2022-08-27T00:24:53.229Z,95450.31
2022-08-27T00:27:19.846Z,95437.25
2022-08-27T00:29:47.921Z,95438.28
2022-08-27T00:32:15.755Z,95438.06
2022-08-27T00:34:42.575Z,95437.25
2022-08-27T00:37:09.176Z,95437.50
2022-08-27T00:39:37.149Z,95442.50
2022-08-27T00:42:07.154Z,95437.88
2022-08-27T00:44:33.811Z,95435.13
2022-08-27T00:47:05.434Z,95446.28
2022-08-27T00:49:38.720Z,95433.69
2022-08-27T00:52:11.984Z,95437.09
2022-08-27T00:54:38.857Z,95436.28
2022-08-27T00:57:06.496Z,95436.03
2022-08-27T00:59:33.183Z,95445.16
2022-08-27T01:02:18.937Z,95441.69
2022-08-27T01:05:00.630Z,95438.63
2022-08-27T01:07:31.907Z,95445.94
2022-08-27T01:10:01.210Z,95448.53
2022-08-27T01:12:30.318Z,95441.03
2022-08-27T01:14:57.598Z,95442.78
2022-08-27T01:17:25.072Z,95445.44
2022-08-27T01:19:57.220Z,95444.31
2022-08-27T01:22:48.949Z,95439.47
2022-08-27T01:25:18.514Z,95442.13
2022-08-27T01:27:46.087Z,95446.63
2022-08-27T01:30:15.983Z,95440.53
2022-08-27T01:32:43.439Z,95452.22
2022-08-27T01:35:13.156Z,95450.28
2022-08-27T01:37:41.898Z,95452.34
2022-08-27T01:40:09.757Z,95451.69
2022-08-27T01:42:43.262Z,95455.09
2022-08-27T01:45:13.752Z,95451.06
2022-08-27T01:47:41.204Z,95453.16
2022-08-27T01:50:31.879Z,95460.88
2022-08-27T01:53:03.562Z,95459.03
2022-08-27T01:55:30.196Z,95455.22
2022-08-27T01:57:57.080Z,95458.38
2022-08-27T02:00:27.397Z,95459.41
2022-08-27T02:02:54.584Z,95455.72
2022-08-27T02:05:21.820Z,95461.03
2022-08-27T02:07:48.669Z,95461.28
2022-08-27T02:10:20.783Z,95457.75
2022-08-27T02:12:47.723Z,95457.75
2022-08-27T02:15:14.793Z,95451.88
2022-08-27T02:17:41.789Z,95451.78
2022-08-27T02:20:11.038Z,95451.09
2022-08-27T02:22:38.717Z,95447.06
2022-08-27T02:25:07.158Z,95437.78
2022-08-27T02:27:37.153Z,95435.13
2022-08-27T02:30:05.757Z,95437.22
2022-08-27T02:32:32.956Z,95439.53
2022-08-27T02:35:00.126Z,95437.59
2022-08-27T02:37:27.756Z,95440.16
2022-08-27T02:39:54.407Z,95440.06
2022-08-27T02:42:21.184Z,95442.63
2022-08-27T02:44:48.415Z,95443.34
2022-08-27T02:47:16.786Z,95446.44
2022-08-27T02:49:44.554Z,95436.38
2022-08-27T02:52:11.290Z,95431.66
2022-08-27T02:54:37.841Z,95437.88
2022-08-27T02:57:05.496Z,95441.91
2022-08-27T02:59:32.056Z,95437.16
2022-08-27T03:01:58.714Z,95437.66
2022-08-27T03:04:25.388Z,95435.66
2022-08-27T03:06:51.940Z,95435.91
2022-08-27T03:09:18.551Z,95435.56
2022-08-27T03:11:45.131Z,95428.53
2022-08-27T03:14:12.894Z,95427.50
2022-08-27T03:16:41.075Z,95434.22
2022-08-27T03:19:08.638Z,95430.16
2022-08-27T03:21:35.692Z,95430.03
2022-08-27T03:24:11.656Z,95425.78
2022-08-27T03:26:41.279Z,95426.84
2022-08-27T03:29:07.991Z,95421.97
2022-08-27T03:31:34.901Z,95431.25
2022-08-27T03:34:04.046Z,95430.31
2022-08-27T03:36:31.507Z,95426.50
2022-08-27T03:38:58.753Z,95425.94
2022-08-27T03:41:54.133Z,95430.69
2022-08-27T03:44:21.266Z,95428.69
2022-08-27T03:46:49.368Z,95436.91
2022-08-27T03:49:20.389Z,95433.47
2022-08-27T03:51:48.851Z,95433.72
2022-08-27T03:54:15.403Z,95434.25
2022-08-27T03:56:42.008Z,95428.94
2022-08-27T03:59:08.916Z,95431.03
2022-08-27T04:01:36.020Z,95434.72
2022-08-27T04:04:03.227Z,95432.06
2022-08-27T04:06:29.812Z,95422.25
2022-08-27T04:08:56.555Z,95426.88
2022-08-27T04:11:23.445Z,95430.22
2022-08-27T04:13:50.053Z,95431.59
2022-08-27T04:16:16.954Z,95434.72
2022-08-27T04:18:43.549Z,95439.25
2022-08-27T04:21:12.673Z,95436.34
2022-08-27T04:23:40.048Z,95434.38
2022-08-27T04:26:08.244Z,95441.31
2022-08-27T04:28:38.410Z,95435.19
2022-08-27T04:31:12.875Z,95431.50
2022-08-27T04:33:50.644Z,95440.50
2022-08-27T04:36:18.202Z,95437.59
2022-08-27T04:38:44.813Z,95435.53
2022-08-27T04:41:21.412Z,95438.19
2022-08-27T04:43:57.529Z,95440.38
2022-08-27T04:46:29.642Z,95429.25
2022-08-27T04:48:58.041Z,95430.06
2022-08-27T04:51:25.770Z,95431.47
2022-08-27T04:53:52.831Z,95429.94
2022-08-27T04:56:22.737Z,95429.50
2022-08-27T04:58:51.429Z,95423.13
2022-08-27T05:01:20.502Z,95425.31
2022-08-27T05:03:47.278Z,95426.13
2022-08-27T05:06:13.879Z,95428.06
2022-08-27T05:08:40.734Z,95428.16
2022-08-27T05:11:10.505Z,95434.66
2022-08-27T05:13:38.139Z,95433.59
2022-08-27T05:16:08.255Z,95426.75
2022-08-27T05:18:42.196Z,95427.09
2022-08-27T05:21:24.151Z,95430.91
2022-08-27T05:23:52.057Z,95425.13
2022-08-27T05:26:18.642Z,95416.41
2022-08-27T05:28:45.525Z,95434.09
2022-08-27T05:31:14.292Z,95424.59
2022-08-27T05:33:42.487Z,95419.34
2022-08-27T05:36:19.815Z,95424.56
2022-08-27T05:38:49.063Z,95423.88
2022-08-27T05:41:17.768Z,95423.97
2022-08-27T05:43:49.700Z,95427.28
2022-08-27T05:46:19.075Z,95420.97
2022-08-27T05:48:46.434Z,95428.56
2022-08-27T05:51:16.202Z,95423.66
2022-08-27T05:53:54.654Z,95418.66
2022-08-27T05:56:21.992Z,95425.47
2022-08-27T05:59:08.260Z,95421.56
2022-08-27T06:01:42.418Z,95415.88
2022-08-27T06:04:09.605Z,95422.38
2022-08-27T06:06:40.999Z,95422.00
2022-08-27T06:09:08.906Z,95426.09
2022-08-27T06:11:35.687Z,95411.56
2022-08-27T06:14:02.419Z,95422.34
2022-08-27T06:16:29.080Z,95412.31
2022-08-27T06:18:57.372Z,95416.19
2022-08-27T06:21:25.024Z,95410.47
2022-08-27T06:23:52.537Z,95412.44
2022-08-27T06:26:20.807Z,95412.56
2022-08-27T06:28:47.578Z,95412.69
2022-08-27T06:31:18.363Z,95412.81
2022-08-27T06:33:46.934Z,95409.69
2022-08-27T06:36:16.421Z,95399.13
2022-08-27T06:38:43.823Z,95405.63
2022-08-27T06:41:23.140Z,95402.03
2022-08-27T06:43:50.248Z,95398.63
2022-08-27T06:46:20.348Z,95398.72
2022-08-27T06:48:48.482Z,95402.06
2022-08-27T06:51:24.532Z,95397.63
2022-08-27T06:53:52.748Z,95399.81
2022-08-27T06:56:19.904Z,95397.47
2022-08-27T06:58:46.564Z,95393.88
2022-08-27T07:01:19.020Z,95396.66
2022-08-27T07:03:46.097Z,95389.25
2022-08-27T07:06:16.612Z,95400.28
2022-08-27T07:08:44.852Z,95381.34
2022-08-27T07:11:20.878Z,95388.34
2022-08-27T07:13:48.984Z,95385.22
2022-08-27T07:16:23.286Z,95382.59
2022-08-27T07:18:52.523Z,95382.09
2022-08-27T07:21:22.435Z,95383.72
2022-08-27T07:23:52.045Z,95383.22
2022-08-27T07:26:19.944Z,95388.31
2022-08-27T07:28:47.403Z,95381.66
2022-08-27T07:31:17.175Z,95382.19
2022-08-27T07:33:50.625Z,95384.38
2022-08-27T07:36:19.373Z,95390.81
2022-08-27T07:38:56.629Z,95391.31
2022-08-27T07:41:30.529Z,95393.47
2022-08-27T07:44:34.528Z,95385.91
2022-08-27T07:47:02.502Z,95393.94
2022-08-27T07:49:30.121Z,95386.31
2022-08-27T07:51:57.064Z,95391.63
2022-08-27T07:54:24.079Z,95396.69
2022-08-27T07:56:55.350Z,95392.59
2022-08-27T07:59:24.153Z,95391.44
2022-08-27T08:01:51.618Z,95390.19
2022-08-27T08:04:20.292Z,95386.91
2022-08-27T08:06:47.141Z,95393.38
2022-08-27T08:09:13.701Z,95390.03
2022-08-27T08:11:41.671Z,95386.19
2022-08-27T08:14:08.301Z,95384.25
2022-08-27T08:16:34.950Z,95397.25
2022-08-27T08:19:02.131Z,95384.75
2022-08-27T08:21:29.066Z,95383.09
2022-08-27T08:23:55.775Z,95383.09
2022-08-27T08:26:23.251Z,95380.34
2022-08-27T08:28:49.858Z,95380.53
2022-08-27T08:31:16.599Z,95379.75
2022-08-27T08:33:43.265Z,95383.31
2022-08-27T08:36:13.516Z,95381.44
2022-08-27T08:38:41.355Z,95385.88
2022-08-27T08:41:25.791Z,95381.00
2022-08-27T08:43:52.500Z,95386.81
2022-08-27T08:46:34.654Z,95383.38
2022-08-27T08:49:06.232Z,95391.63
2022-08-27T08:51:40.603Z,95380.63
2022-08-27T08:54:14.385Z,95384.06
2022-08-27T08:56:45.930Z,95385.91
2022-08-27T08:59:25.019Z,95383.03
2022-08-27T09:01:52.119Z,95387.31
2022-08-27T09:04:18.777Z,95385.31
2022-08-27T09:06:56.695Z,95395.31
2022-08-27T09:09:36.052Z,95383.88
2022-08-27T09:12:19.265Z,95388.31
2022-08-27T09:14:48.518Z,95375.88
2022-08-27T09:17:15.125Z,95382.72
2022-08-27T09:19:43.025Z,95385.47
2022-08-27T09:22:30.202Z,95389.66
2022-08-27T09:25:11.742Z,95381.44
2022-08-27T09:27:41.755Z,95386.59
2022-08-27T09:30:12.247Z,95382.78
2022-08-27T09:32:40.217Z,95386.69
2022-08-27T09:35:11.298Z,95383.59
2022-08-27T09:37:48.133Z,95387.50
2022-08-27T09:40:29.219Z,95386.63
2022-08-27T09:43:07.871Z,95389.81
2022-08-27T09:45:35.417Z,95391.41
2022-08-27T09:48:07.590Z,95388.44
2022-08-27T09:50:45.741Z,95380.63
2022-08-27T09:53:25.449Z,95387.03
2022-08-27T09:56:01.327Z,95387.09
2022-08-27T09:58:32.011Z,95396.84
2022-08-27T10:01:16.306Z,95381.72
2022-08-27T10:03:43.594Z,95383.28
2022-08-27T10:06:11.385Z,95386.31
2022-08-27T10:08:48.695Z,95376.28
2022-08-27T10:11:23.744Z,95372.63
2022-08-27T10:14:03.086Z,95383.00
2022-08-27T10:17:00.798Z,95380.28
2022-08-27T10:20:03.763Z,95375.00
2022-08-27T10:22:36.023Z,95382.53
2022-08-27T10:25:17.075Z,95380.75
2022-08-27T10:28:20.465Z,95382.97
2022-08-27T10:31:08.405Z,95379.34
2022-08-27T10:34:03.877Z,95371.69
2022-08-27T10:36:54.811Z,95372.47
2022-08-27T10:39:41.960Z,95379.81
2022-08-27T10:42:11.557Z,95381.09
2022-08-27T10:45:04.320Z,95366.69
2022-08-27T10:47:49.248Z,95380.91
2022-08-27T10:50:30.605Z,95372.78
2022-08-27T10:53:11.715Z,95374.38
2022-08-27T10:55:45.964Z,95364.00
2022-08-27T10:58:21.543Z,95367.03
2022-08-27T11:01:03.815Z,95372.13
2022-08-27T11:03:39.623Z,95366.88
2022-08-27T11:06:24.908Z,95366.84
2022-08-27T11:08:58.613Z,95368.94
2022-08-27T11:12:13.220Z,95366.72
2022-08-27T11:14:38.935Z,95366.03
2022-08-27T11:17:13.398Z,95359.34
2022-08-27T11:20:03.887Z,95353.25
2022-08-27T11:22:37.478Z,95360.56
2022-08-27T11:25:22.394Z,95359.28
2022-08-27T11:27:54.338Z,95355.75
2022-08-27T11:30:30.083Z,95359.88
2022-08-27T11:33:15.447Z,95363.53
2022-08-27T11:35:56.964Z,95361.91
2022-08-27T11:38:43.091Z,95367.34
2022-08-27T11:41:45.226Z,95358.78
2022-08-27T11:44:14.753Z,95353.94
2022-08-27T11:46:56.679Z,95353.81
2022-08-27T11:49:43.472Z,95353.59
2022-08-27T11:52:11.113Z,95353.34
2022-08-27T11:54:51.017Z,95344.97
2022-08-27T11:57:30.445Z,95345.41
2022-08-27T11:59:57.407Z,95336.72
2022-08-27T12:02:29.527Z,95340.50
2022-08-27T12:05:26.497Z,95335.31
2022-08-27T12:07:53.615Z,95335.84
2022-08-27T12:10:38.390Z,95340.69
2022-08-27T12:13:17.581Z,95343.81
2022-08-27T12:16:07.947Z,95341.91
2022-08-27T12:19:19.140Z,95338.22
2022-08-27T12:22:19.177Z,95346.94
2022-08-27T12:24:50.612Z,95344.22
2022-08-27T12:27:24.516Z,95339.66
2022-08-27T12:29:58.363Z,95344.94
2022-08-27T12:32:44.382Z,95338.25
2022-08-27T12:35:19.259Z,95334.63
2022-08-27T12:38:07.222Z,95329.44
2022-08-27T12:40:54.875Z,95337.16
2022-08-27T12:43:30.048Z,95341.66
2022-08-27T12:46:08.509Z,95350.06
2022-08-27T12:48:42.563Z,95329.88
2022-08-27T12:51:32.915Z,95337.81
2022-08-27T12:54:33.272Z,95332.41
2022-08-27T12:57:27.755Z,95327.31
2022-08-27T13:00:05.086Z,95320.66
2022-08-27T13:02:37.448Z,95327.47
2022-08-27T13:05:10.471Z,95317.47
2022-08-27T13:07:43.392Z,95326.38
2022-08-27T13:10:16.660Z,95310.91
2022-08-27T13:12:45.441Z,95308.66
2022-08-27T13:15:16.094Z,95313.53
2022-08-27T13:17:45.694Z,95312.06
2022-08-27T13:20:20.647Z,95315.44
2022-08-27T13:22:47.783Z,95317.47
2022-08-27T13:25:23.609Z,95317.06
2022-08-27T13:27:57.226Z,95317.28
2022-08-27T13:30:35.587Z,95326.00
2022-08-27T13:33:06.195Z,95328.25
2022-08-27T13:35:33.451Z,95331.38
2022-08-27T13:38:03.635Z,95319.66
2022-08-27T13:40:37.092Z,95327.00
2022-08-27T13:43:12.346Z,95328.13
2022-08-27T13:45:41.744Z,95318.78
2022-08-27T13:48:10.511Z,95322.50
2022-08-27T13:50:37.372Z,95319.44
2022-08-27T13:53:27.609Z,95325.00
2022-08-27T13:55:56.592Z,95326.06
2022-08-27T13:58:32.185Z,95320.63
2022-08-27T14:01:16.431Z,95328.34
2022-08-27T14:03:49.980Z,95322.38
2022-08-27T14:06:47.767Z,95322.47
2022-08-27T14:09:28.781Z,95332.00
2022-08-27T14:12:05.107Z,95336.97
2022-08-27T14:14:39.014Z,95339.41
2022-08-27T14:17:08.870Z,95339.63
2022-08-27T14:19:37.052Z,95339.69
2022-08-27T14:22:04.257Z,95337.38
2022-08-27T14:24:30.879Z,95345.06
2022-08-27T14:27:06.076Z,95348.94
2022-08-27T14:29:32.658Z,95343.69
2022-08-27T14:31:59.223Z,95348.81
2022-08-27T14:34:25.790Z,95348.47
2022-08-27T14:36:54.830Z,95345.28
2022-08-27T14:39:26.088Z,95338.91
2022-08-27T14:41:53.357Z,95337.97
2022-08-27T14:44:21.876Z,95344.09
2022-08-27T14:46:49.022Z,95340.22
2022-08-27T14:49:27.737Z,95337.16
2022-08-27T14:51:54.424Z,95331.19
2022-08-27T14:54:21.025Z,95325.88
2022-08-27T14:56:47.684Z,95328.94
2022-08-27T14:59:14.319Z,95331.31
2022-08-27T15:01:41.066Z,95327.75
2022-08-27T15:04:07.829Z,95325.59
2022-08-27T15:06:34.586Z,95325.59
2022-08-27T15:09:01.616Z,95332.19
2022-08-27T15:11:31.447Z,95329.00
2022-08-27T15:14:00.196Z,95328.78
2022-08-27T15:16:28.281Z,95325.28
2022-08-27T15:19:00.873Z,95323.13
2022-08-27T15:21:30.626Z,95334.50
2022-08-27T15:24:01.318Z,95334.16
2022-08-27T15:26:28.543Z,95335.44
2022-08-27T15:28:55.334Z,95339.06
2022-08-27T15:31:22.312Z,95333.28
2022-08-27T15:33:49.362Z,95334.13
2022-08-27T15:36:15.976Z,95338.63
2022-08-27T15:38:42.660Z,95339.41
2022-08-27T15:41:10.393Z,95337.69
2022-08-27T15:43:38.888Z,95343.75
2022-08-27T15:46:05.867Z,95344.47
2022-08-27T15:48:32.741Z,95341.53
2022-08-27T15:51:04.927Z,95346.22
2022-08-27T15:53:31.802Z,95344.13
2022-08-27T15:55:58.587Z,95346.41
2022-08-27T15:58:29.014Z,95348.34
2022-08-27T16:01:01.435Z,95345.47
2022-08-27T16:03:35.466Z,95351.09
2022-08-27T16:06:04.757Z,95356.28
2022-08-27T16:08:36.604Z,95354.91
2022-08-27T16:11:03.928Z,95362.34
2022-08-27T16:13:31.200Z,95358.88
2022-08-27T16:15:58.096Z,95345.66
2022-08-27T16:18:30.684Z,95353.63
2022-08-27T16:20:59.787Z,95357.03
2022-08-27T16:23:27.151Z,95355.53
2022-08-27T16:25:54.967Z,95358.97
2022-08-27T16:28:22.068Z,95360.59
2022-08-27T16:30:50.116Z,95363.16
2022-08-27T16:33:16.720Z,95366.25
2022-08-27T16:35:43.394Z,95370.09
2022-08-27T16:38:11.774Z,95366.13
2022-08-27T16:40:48.846Z,95375.28
2022-08-27T16:43:24.587Z,95372.13
2022-08-27T16:45:53.812Z,95372.78
2022-08-27T16:48:39.954Z,95377.75
2022-08-27T16:51:17.496Z,95377.09
2022-08-27T16:53:45.172Z,95380.44
2022-08-27T16:56:11.870Z,95374.41
2022-08-27T16:58:40.525Z,95375.31
2022-08-27T17:01:10.641Z,95382.00
2022-08-27T17:04:07.685Z,95379.41
2022-08-27T17:06:33.940Z,95396.28
2022-08-27T17:09:04.792Z,95390.16
2022-08-27T17:11:34.626Z,95397.09
2022-08-27T17:14:02.463Z,95394.00
2022-08-27T17:16:31.801Z,95406.53
2022-08-27T17:19:01.184Z,95401.19
2022-08-27T17:21:30.126Z,95401.44
2022-08-27T17:23:59.429Z,95403.91
2022-08-27T17:26:26.230Z,95410.16
2022-08-27T17:28:53.038Z,95419.44
2022-08-27T17:31:27.980Z,95418.28
2022-08-27T17:33:58.131Z,95406.88
2022-08-27T17:36:28.705Z,95417.94
2022-08-27T17:38:55.491Z,95419.75
2022-08-27T17:41:25.576Z,95425.88
2022-08-27T17:43:53.125Z,95427.16
2022-08-27T17:46:19.784Z,95429.56
2022-08-27T17:48:46.346Z,95429.78
2022-08-27T17:51:13.424Z,95437.00
2022-08-27T17:53:47.280Z,95436.59
2022-08-27T17:56:19.140Z,95439.41
2022-08-27T17:58:46.913Z,95430.66
2022-08-27T18:01:15.992Z,95440.06
2022-08-27T18:03:44.912Z,95441.53
2022-08-27T18:06:15.696Z,95443.91
2022-08-27T18:08:42.381Z,95449.47
2022-08-27T18:11:11.262Z,95455.84
2022-08-27T18:13:38.030Z,95465.78
2022-08-27T18:16:05.609Z,95477.19
2022-08-27T18:18:34.051Z,95477.97
2022-08-27T18:21:01.356Z,95479.16
2022-08-27T18:23:28.020Z,95478.72
2022-08-27T18:25:55.769Z,95485.31
2022-08-27T18:28:23.112Z,95484.59
2022-08-27T18:30:50.669Z,95492.56
2022-08-27T18:33:17.414Z,95503.47
2022-08-27T18:35:44.154Z,95493.38
2022-08-27T18:38:11.488Z,95490.81
2022-08-27T18:40:43.498Z,95497.31
2022-08-27T18:43:10.874Z,95494.09
2022-08-27T18:45:37.963Z,95491.16
2022-08-27T18:48:12.806Z,95493.63
2022-08-27T18:50:44.209Z,95493.19
2022-08-27T18:53:10.998Z,95494.63
2022-08-27T18:55:37.604Z,95496.53
2022-08-27T18:58:04.367Z,95490.66
2022-08-27T19:00:31.008Z,95486.97
2022-08-27T19:02:57.628Z,95490.28
2022-08-27T19:05:26.750Z,95488.16
2022-08-27T19:07:53.980Z,95487.16
2022-08-27T19:10:20.910Z,95483.41
2022-08-27T19:12:47.885Z,95486.97
2022-08-27T19:15:15.320Z,95495.31
2022-08-27T19:17:45.552Z,95492.59
2022-08-27T19:20:12.184Z,95488.31
2022-08-27T19:22:38.957Z,95487.78
2022-08-27T19:25:07.541Z,95490.78
2022-08-27T19:27:35.704Z,95490.81
2022-08-27T19:30:02.784Z,95490.06
2022-08-27T19:32:30.204Z,95493.66
2022-08-27T19:34:56.790Z,95488.03
2022-08-27T19:37:27.277Z,95493.47
2022-08-27T19:39:53.883Z,95493.50
2022-08-27T19:42:20.531Z,95489.28
2022-08-27T19:44:47.513Z,95495.47
2022-08-27T19:47:16.896Z,95488.22
2022-08-27T19:49:49.801Z,95493.91
2022-08-27T19:52:16.414Z,95485.81
2022-08-27T19:55:03.330Z,95489.03
2022-08-27T19:57:29.631Z,95488.78
2022-08-27T19:59:56.193Z,95486.19
2022-08-27T20:02:23.576Z,95483.00
2022-08-27T20:05:14.188Z,95490.03
2022-08-27T20:07:36.871Z,95489.50
2022-08-27T20:10:08.506Z,95486.78
2022-08-27T20:12:35.455Z,95488.91
2022-08-27T20:15:01.986Z,95493.22
2022-08-27T20:17:28.606Z,95485.97
2022-08-27T20:19:57.058Z,95478.19
2022-08-27T20:22:23.746Z,95471.22
2022-08-27T20:24:50.378Z,95458.88
2022-08-27T20:27:16.923Z,95455.13
2022-08-27T20:29:43.470Z,95450.06
2022-08-27T20:32:10.072Z,95460.03
2022-08-27T20:34:37.530Z,95462.19
2022-08-27T20:37:07.937Z,95456.81
2022-08-27T20:39:34.574Z,95453.06
2022-08-27T20:42:01.151Z,95457.63
2022-08-27T20:44:27.734Z,95463.00
2022-08-27T20:46:57.884Z,95453.09
2022-08-27T20:49:24.438Z,95457.41
2022-08-27T20:52:03.133Z,95450.94
2022-08-27T20:54:31.650Z,95452.00
2022-08-27T20:56:58.649Z,95457.94
2022-08-27T20:59:44.006Z,95456.88
2022-08-27T21:02:13.075Z,95461.72
2022-08-27T21:04:43.647Z,95454.22
2022-08-27T21:07:10.238Z,95448.59
2022-08-27T21:09:51.878Z,95452.38
2022-08-27T21:12:25.468Z,95452.94
2022-08-27T21:14:55.747Z,95458.06
2022-08-27T21:17:24.882Z,95468.28
2022-08-27T21:19:52.545Z,95461.81
2022-08-27T21:22:20.042Z,95471.22
2022-08-27T21:24:47.585Z,95461.28
2022-08-27T21:27:15.451Z,95468.56
2022-08-27T21:29:44.554Z,95473.69
2022-08-27T21:32:11.367Z,95470.19
2022-08-27T21:34:37.923Z,95465.09
2022-08-27T21:37:04.902Z,95476.41
2022-08-27T21:39:32.859Z,95475.34
2022-08-27T21:42:00.786Z,95472.66
2022-08-27T21:44:28.063Z,95466.19
2022-08-27T21:46:54.811Z,95469.44
2022-08-27T21:49:21.401Z,95465.69
2022-08-27T21:51:48.036Z,95468.09
2022-08-27T21:54:14.910Z,95476.72
2022-08-27T21:56:43.000Z,95477.75
2022-08-27T21:59:09.666Z,95481.00
2022-08-27T22:01:36.870Z,95477.25
2022-08-27T22:04:03.870Z,95486.16
2022-08-27T22:06:30.544Z,95485.06
2022-08-27T22:08:57.139Z,95485.09
2022-08-27T22:11:24.635Z,95479.75
2022-08-27T22:13:52.298Z,95487.81
2022-08-27T22:16:19.483Z,95488.91
2022-08-27T22:18:46.226Z,95501.78
2022-08-27T22:21:13.431Z,95502.34
2022-08-27T22:23:44.799Z,95512.53
2022-08-27T22:26:12.002Z,95516.31
2022-08-27T22:28:38.627Z,95520.59
2022-08-27T22:31:07.285Z,95524.88
2022-08-27T22:33:34.214Z,95529.72
2022-08-27T22:36:01.234Z,95531.38
2022-08-27T22:38:27.896Z,95534.88
2022-08-27T22:40:55.103Z,95532.44
2022-08-27T22:43:21.723Z,95530.84
2022-08-27T22:45:48.269Z,95520.63
2022-08-27T22:48:14.889Z,95525.75
2022-08-27T22:50:41.610Z,95526.03
2022-08-27T22:53:08.950Z,95516.88
2022-08-27T22:55:36.610Z,95520.38
2022-08-27T22:58:03.769Z,95524.94
2022-08-27T23:00:34.572Z,95520.38
2022-08-27T23:03:05.572Z,95540.22
2022-08-27T23:05:40.402Z,95520.66
2022-08-27T23:08:11.060Z,95529.78
2022-08-27T23:10:38.230Z,95524.69
2022-08-27T23:13:06.931Z,95522.81
2022-08-27T23:15:33.984Z,95524.94
2022-08-27T23:18:01.665Z,95520.63
2022-08-27T23:20:28.854Z,95527.63
2022-08-27T23:22:55.974Z,95524.94
2022-08-27T23:25:43.406Z,95516.91
2022-08-27T23:28:14.443Z,95516.91
2022-08-27T23:30:41.715Z,95518.75
2022-08-27T23:33:08.246Z,95524.38
2022-08-27T23:35:35.341Z,95528.69
2022-08-27T23:38:01.890Z,95528.16
2022-08-27T23:40:28.655Z,95527.34
2022-08-27T23:42:55.262Z,95527.59
2022-08-27T23:45:24.645Z,95523.31
2022-08-27T23:47:51.683Z,95516.88
2022-08-27T23:50:18.419Z,95528.16
2022-08-27T23:52:45.029Z,95524.94
2022-08-27T23:55:11.996Z,95519.56
2022-08-27T23:57:39.812Z,95519.56
